sensor_id;sensor_type;location;lat;lon;timestamp;temperature;humidity
22629;DHT22;11481;53.694;9.910;2023-04-25T00:01:58;8.10;99.90
22629;DHT22;11481;53.694;9.910;2023-04-25T00:04:27;8.00;99.90
22629;DHT22;11481;53.694;9.910;2023-04-25T00:06:54;8.00;99.90
22629;DHT22;11481;53.694;9.910;2023-04-25T00:09:21;7.90;99.90
22629;DHT22;11481;53.694;9.910;2023-04-25T00:11:48;7.90;99.90
22629;DHT22;11481;53.694;9.910;2023-04-25T00:14:15;7.90;99.90
22629;DHT22;11481;53.694;9.910;2023-04-25T00:16:43;7.90;99.90
22629;DHT22;11481;53.694;9.910;2023-04-25T00:19:10;8.10;99.90
22629;DHT22;11481;53.694;9.910;2023-04-25T00:21:39;8.10;99.90
22629;DHT22;11481;53.694;9.910;2023-04-25T00:24:12;8.00;99.90
22629;DHT22;11481;53.694;9.910;2023-04-25T00:26:39;8.10;99.90
22629;DHT22;11481;53.694;9.910;2023-04-25T00:29:06;8.10;99.90
22629;DHT22;11481;53.694;9.910;2023-04-25T00:31:32;8.10;99.90
22629;DHT22;11481;53.694;9.910;2023-04-25T00:33:59;8.10;99.90
22629;DHT22;11481;53.694;9.910;2023-04-25T00:36:26;8.10;99.90
22629;DHT22;11481;53.694;9.910;2023-04-25T00:38:53;8.00;99.90
22629;DHT22;11481;53.694;9.910;2023-04-25T00:41:20;7.90;99.90
22629;DHT22;11481;53.694;9.910;2023-04-25T00:43:48;8.00;99.90
22629;DHT22;11481;53.694;9.910;2023-04-25T00:46:15;8.00;99.90
22629;DHT22;11481;53.694;9.910;2023-04-25T00:48:41;8.00;99.90
22629;DHT22;11481;53.694;9.910;2023-04-25T00:51:09;7.90;99.90
22629;DHT22;11481;53.694;9.910;2023-04-25T00:53:38;7.80;99.90
22629;DHT22;11481;53.694;9.910;2023-04-25T00:56:04;7.80;99.90
22629;DHT22;11481;53.694;9.910;2023-04-25T00:58:32;7.80;99.90
22629;DHT22;11481;53.694;9.910;2023-04-25T01:01:00;7.80;99.90
22629;DHT22;11481;53.694;9.910;2023-04-25T01:03:27;7.70;99.90
22629;DHT22;11481;53.694;9.910;2023-04-25T01:05:55;7.80;99.90
22629;DHT22;11481;53.694;9.910;2023-04-25T01:08:24;7.80;99.90
22629;DHT22;11481;53.694;9.910;2023-04-25T01:10:51;7.70;99.90
22629;DHT22;11481;53.694;9.910;2023-04-25T01:13:18;7.50;99.90
22629;DHT22;11481;53.694;9.910;2023-04-25T01:15:45;7.60;99.90
22629;DHT22;11481;53.694;9.910;2023-04-25T01:18:12;7.70;99.90
22629;DHT22;11481;53.694;9.910;2023-04-25T01:20:40;7.60;99.90
22629;DHT22;11481;53.694;9.910;2023-04-25T01:23:08;7.60;99.90
22629;DHT22;11481;53.694;9.910;2023-04-25T01:25:35;7.60;99.90
22629;DHT22;11481;53.694;9.910;2023-04-25T01:28:02;7.60;99.90
22629;DHT22;11481;53.694;9.910;2023-04-25T01:30:29;7.70;99.90
22629;DHT22;11481;53.694;9.910;2023-04-25T01:32:56;7.70;99.90
22629;DHT22;11481;53.694;9.910;2023-04-25T01:35:23;7.60;99.90
22629;DHT22;11481;53.694;9.910;2023-04-25T01:37:51;7.60;99.90
22629;DHT22;11481;53.694;9.910;2023-04-25T01:40:18;7.50;99.90
22629;DHT22;11481;53.694;9.910;2023-04-25T01:42:47;7.50;99.90
22629;DHT22;11481;53.694;9.910;2023-04-25T01:45:13;7.40;99.90
22629;DHT22;11481;53.694;9.910;2023-04-25T01:47:40;7.30;99.90
22629;DHT22;11481;53.694;9.910;2023-04-25T01:50:09;7.30;99.90
22629;DHT22;11481;53.694;9.910;2023-04-25T01:52:37;7.40;99.90
22629;DHT22;11481;53.694;9.910;2023-04-25T01:55:04;7.40;99.90
22629;DHT22;11481;53.694;9.910;2023-04-25T01:57:31;7.20;99.90
22629;DHT22;11481;53.694;9.910;2023-04-25T01:59:59;7.30;99.90
22629;DHT22;11481;53.694;9.910;2023-04-25T02:02:26;7.30;99.90
22629;DHT22;11481;53.694;9.910;2023-04-25T02:04:53;7.30;99.90
22629;DHT22;11481;53.694;9.910;2023-04-25T02:07:21;7.30;99.90
22629;DHT22;11481;53.694;9.910;2023-04-25T02:09:47;7.20;99.90
22629;DHT22;11481;53.694;9.910;2023-04-25T02:12:14;7.20;99.90
22629;DHT22;11481;53.694;9.910;2023-04-25T02:14:41;7.30;99.90
22629;DHT22;11481;53.694;9.910;2023-04-25T02:17:08;7.20;99.90
22629;DHT22;11481;53.694;9.910;2023-04-25T02:19:35;7.20;99.90
22629;DHT22;11481;53.694;9.910;2023-04-25T02:22:02;7.20;99.90
22629;DHT22;11481;53.694;9.910;2023-04-25T02:24:28;7.20;99.90
22629;DHT22;11481;53.694;9.910;2023-04-25T02:26:55;7.40;99.90
22629;DHT22;11481;53.694;9.910;2023-04-25T02:29:22;7.20;99.90
22629;DHT22;11481;53.694;9.910;2023-04-25T02:31:49;7.10;99.90
22629;DHT22;11481;53.694;9.910;2023-04-25T02:34:16;7.20;99.90
22629;DHT22;11481;53.694;9.910;2023-04-25T02:36:43;7.20;99.90
22629;DHT22;11481;53.694;9.910;2023-04-25T02:39:09;7.10;99.90
22629;DHT22;11481;53.694;9.910;2023-04-25T02:41:37;7.20;99.90
22629;DHT22;11481;53.694;9.910;2023-04-25T02:44:04;7.20;99.90
22629;DHT22;11481;53.694;9.910;2023-04-25T02:46:30;7.10;99.90
22629;DHT22;11481;53.694;9.910;2023-04-25T02:49:04;7.10;99.90
22629;DHT22;11481;53.694;9.910;2023-04-25T02:51:31;7.00;99.90
22629;DHT22;11481;53.694;9.910;2023-04-25T02:53:59;7.00;99.90
22629;DHT22;11481;53.694;9.910;2023-04-25T02:56:25;7.00;99.90
22629;DHT22;11481;53.694;9.910;2023-04-25T02:58:53;6.90;99.90
22629;DHT22;11481;53.694;9.910;2023-04-25T03:01:20;6.90;99.90
22629;DHT22;11481;53.694;9.910;2023-04-25T03:03:47;6.90;99.90
22629;DHT22;11481;53.694;9.910;2023-04-25T03:06:14;6.90;99.90
22629;DHT22;11481;53.694;9.910;2023-04-25T03:08:42;6.90;99.90
22629;DHT22;11481;53.694;9.910;2023-04-25T03:11:09;6.90;99.90
22629;DHT22;11481;53.694;9.910;2023-04-25T03:13:37;6.70;99.90
22629;DHT22;11481;53.694;9.910;2023-04-25T03:16:04;6.70;99.90
22629;DHT22;11481;53.694;9.910;2023-04-25T03:18:30;6.60;99.90
22629;DHT22;11481;53.694;9.910;2023-04-25T03:20:57;6.60;99.90
22629;DHT22;11481;53.694;9.910;2023-04-25T03:23:24;6.60;99.90
22629;DHT22;11481;53.694;9.910;2023-04-25T03:25:51;6.60;99.90
22629;DHT22;11481;53.694;9.910;2023-04-25T03:28:18;6.40;99.90
22629;DHT22;11481;53.694;9.910;2023-04-25T03:30:44;6.40;99.90
22629;DHT22;11481;53.694;9.910;2023-04-25T03:33:11;6.40;99.90
22629;DHT22;11481;53.694;9.910;2023-04-25T03:35:38;6.40;99.90
22629;DHT22;11481;53.694;9.910;2023-04-25T03:38:04;6.30;99.90
22629;DHT22;11481;53.694;9.910;2023-04-25T03:40:31;6.30;99.90
22629;DHT22;11481;53.694;9.910;2023-04-25T03:42:58;6.30;99.90
22629;DHT22;11481;53.694;9.910;2023-04-25T03:45:25;6.40;99.90
22629;DHT22;11481;53.694;9.910;2023-04-25T03:47:51;6.40;99.90
22629;DHT22;11481;53.694;9.910;2023-04-25T03:50:18;6.40;99.90
22629;DHT22;11481;53.694;9.910;2023-04-25T03:52:45;6.40;99.90
22629;DHT22;11481;53.694;9.910;2023-04-25T03:55:12;6.30;99.90
22629;DHT22;11481;53.694;9.910;2023-04-25T03:57:38;6.30;99.90
22629;DHT22;11481;53.694;9.910;2023-04-25T04:00:06;6.30;99.90
22629;DHT22;11481;53.694;9.910;2023-04-25T04:02:33;6.30;99.90
22629;DHT22;11481;53.694;9.910;2023-04-25T04:05:02;6.40;99.90
22629;DHT22;11481;53.694;9.910;2023-04-25T04:07:29;6.30;99.90
22629;DHT22;11481;53.694;9.910;2023-04-25T04:09:58;6.20;99.90
22629;DHT22;11481;53.694;9.910;2023-04-25T04:12:25;6.30;99.90
22629;DHT22;11481;53.694;9.910;2023-04-25T04:14:53;6.30;99.90
22629;DHT22;11481;53.694;9.910;2023-04-25T04:17:19;6.30;99.90
22629;DHT22;11481;53.694;9.910;2023-04-25T04:19:46;6.30;99.90
22629;DHT22;11481;53.694;9.910;2023-04-25T04:22:13;6.30;99.90
22629;DHT22;11481;53.694;9.910;2023-04-25T04:24:40;6.40;99.90
22629;DHT22;11481;53.694;9.910;2023-04-25T04:27:10;6.40;99.90
22629;DHT22;11481;53.694;9.910;2023-04-25T04:29:36;6.40;99.90
22629;DHT22;11481;53.694;9.910;2023-04-25T04:32:03;6.50;99.90
22629;DHT22;11481;53.694;9.910;2023-04-25T04:34:33;6.40;99.90
22629;DHT22;11481;53.694;9.910;2023-04-25T04:37:00;6.30;99.90
22629;DHT22;11481;53.694;9.910;2023-04-25T04:39:27;6.30;99.90
22629;DHT22;11481;53.694;9.910;2023-04-25T04:41:53;6.30;99.90
22629;DHT22;11481;53.694;9.910;2023-04-25T04:44:20;6.40;99.90
22629;DHT22;11481;53.694;9.910;2023-04-25T04:46:47;6.40;99.90
22629;DHT22;11481;53.694;9.910;2023-04-25T04:49:15;6.40;99.90
22629;DHT22;11481;53.694;9.910;2023-04-25T04:51:42;6.50;99.90
22629;DHT22;11481;53.694;9.910;2023-04-25T04:54:11;6.50;99.90
22629;DHT22;11481;53.694;9.910;2023-04-25T04:56:39;6.40;99.90
22629;DHT22;11481;53.694;9.910;2023-04-25T04:59:06;6.40;99.90
22629;DHT22;11481;53.694;9.910;2023-04-25T05:01:34;6.40;99.90
22629;DHT22;11481;53.694;9.910;2023-04-25T05:04:05;6.50;99.90
22629;DHT22;11481;53.694;9.910;2023-04-25T05:06:32;6.40;99.90
22629;DHT22;11481;53.694;9.910;2023-04-25T05:08:59;6.30;99.90
22629;DHT22;11481;53.694;9.910;2023-04-25T05:11:26;6.00;99.90
22629;DHT22;11481;53.694;9.910;2023-04-25T05:13:53;5.80;99.90
22629;DHT22;11481;53.694;9.910;2023-04-25T05:16:20;5.70;99.90
22629;DHT22;11481;53.694;9.910;2023-04-25T05:18:47;5.60;99.90
22629;DHT22;11481;53.694;9.910;2023-04-25T05:21:14;5.60;99.90
22629;DHT22;11481;53.694;9.910;2023-04-25T05:23:40;5.60;99.90
22629;DHT22;11481;53.694;9.910;2023-04-25T05:26:07;5.70;99.90
22629;DHT22;11481;53.694;9.910;2023-04-25T05:28:40;5.70;99.90
22629;DHT22;11481;53.694;9.910;2023-04-25T05:31:10;5.60;99.90
22629;DHT22;11481;53.694;9.910;2023-04-25T05:33:37;5.60;99.90
22629;DHT22;11481;53.694;9.910;2023-04-25T05:36:06;5.70;99.90
22629;DHT22;11481;53.694;9.910;2023-04-25T05:38:32;5.70;99.90
22629;DHT22;11481;53.694;9.910;2023-04-25T05:41:00;5.70;99.90
22629;DHT22;11481;53.694;9.910;2023-04-25T05:43:29;5.80;99.90
22629;DHT22;11481;53.694;9.910;2023-04-25T05:45:56;5.90;99.90
22629;DHT22;11481;53.694;9.910;2023-04-25T05:48:22;5.80;99.90
22629;DHT22;11481;53.694;9.910;2023-04-25T05:50:49;5.90;99.90
22629;DHT22;11481;53.694;9.910;2023-04-25T05:53:19;6.00;99.90
22629;DHT22;11481;53.694;9.910;2023-04-25T05:55:46;6.10;99.90
22629;DHT22;11481;53.694;9.910;2023-04-25T05:58:13;6.10;99.90
22629;DHT22;11481;53.694;9.910;2023-04-25T06:00:39;6.20;99.90
22629;DHT22;11481;53.694;9.910;2023-04-25T06:03:09;6.20;99.90
22629;DHT22;11481;53.694;9.910;2023-04-25T06:05:36;6.30;99.90
22629;DHT22;11481;53.694;9.910;2023-04-25T06:08:03;6.30;99.90
22629;DHT22;11481;53.694;9.910;2023-04-25T06:10:30;6.30;99.90
22629;DHT22;11481;53.694;9.910;2023-04-25T06:12:58;6.30;99.90
22629;DHT22;11481;53.694;9.910;2023-04-25T06:15:26;6.30;99.90
22629;DHT22;11481;53.694;9.910;2023-04-25T06:17:55;6.40;99.90
22629;DHT22;11481;53.694;9.910;2023-04-25T06:20:23;6.60;99.90
22629;DHT22;11481;53.694;9.910;2023-04-25T06:22:51;6.50;99.90
22629;DHT22;11481;53.694;9.910;2023-04-25T06:25:18;6.60;99.90
22629;DHT22;11481;53.694;9.910;2023-04-25T06:27:44;6.60;99.90
22629;DHT22;11481;53.694;9.910;2023-04-25T06:30:13;6.50;99.90
22629;DHT22;11481;53.694;9.910;2023-04-25T06:32:42;6.50;99.90
22629;DHT22;11481;53.694;9.910;2023-04-25T06:35:08;6.60;99.90
22629;DHT22;11481;53.694;9.910;2023-04-25T06:37:35;6.50;99.90
22629;DHT22;11481;53.694;9.910;2023-04-25T06:40:02;6.40;99.90
22629;DHT22;11481;53.694;9.910;2023-04-25T06:42:30;6.50;99.90
22629;DHT22;11481;53.694;9.910;2023-04-25T06:44:59;6.50;99.90
22629;DHT22;11481;53.694;9.910;2023-04-25T06:47:26;6.50;99.90
22629;DHT22;11481;53.694;9.910;2023-04-25T06:49:52;6.50;99.90
22629;DHT22;11481;53.694;9.910;2023-04-25T06:52:19;6.50;99.90
22629;DHT22;11481;53.694;9.910;2023-04-25T06:54:46;6.40;99.90
22629;DHT22;11481;53.694;9.910;2023-04-25T06:57:14;6.40;99.90
22629;DHT22;11481;53.694;9.910;2023-04-25T06:59:41;6.20;99.90
22629;DHT22;11481;53.694;9.910;2023-04-25T07:02:09;6.20;99.90
22629;DHT22;11481;53.694;9.910;2023-04-25T07:04:36;6.20;99.90
22629;DHT22;11481;53.694;9.910;2023-04-25T07:07:03;6.10;99.90
22629;DHT22;11481;53.694;9.910;2023-04-25T07:09:30;5.90;99.90
22629;DHT22;11481;53.694;9.910;2023-04-25T07:12:00;5.80;99.90
22629;DHT22;11481;53.694;9.910;2023-04-25T07:14:29;5.90;99.90
22629;DHT22;11481;53.694;9.910;2023-04-25T07:16:57;5.90;99.90
22629;DHT22;11481;53.694;9.910;2023-04-25T07:19:26;5.90;99.90
22629;DHT22;11481;53.694;9.910;2023-04-25T07:21:53;6.00;99.90
22629;DHT22;11481;53.694;9.910;2023-04-25T07:24:20;6.00;99.90
22629;DHT22;11481;53.694;9.910;2023-04-25T07:26:47;6.00;99.90
22629;DHT22;11481;53.694;9.910;2023-04-25T07:29:14;6.20;99.90
22629;DHT22;11481;53.694;9.910;2023-04-25T07:31:40;6.20;99.90
22629;DHT22;11481;53.694;9.910;2023-04-25T07:34:08;6.30;99.90
22629;DHT22;11481;53.694;9.910;2023-04-25T07:36:34;6.40;99.90
22629;DHT22;11481;53.694;9.910;2023-04-25T07:39:01;6.50;99.90
22629;DHT22;11481;53.694;9.910;2023-04-25T07:41:32;6.60;99.90
22629;DHT22;11481;53.694;9.910;2023-04-25T07:43:58;6.70;99.90
22629;DHT22;11481;53.694;9.910;2023-04-25T07:46:25;6.80;99.90
22629;DHT22;11481;53.694;9.910;2023-04-25T07:48:56;6.90;99.90
22629;DHT22;11481;53.694;9.910;2023-04-25T07:51:22;7.00;99.90
22629;DHT22;11481;53.694;9.910;2023-04-25T07:53:51;7.20;99.90
22629;DHT22;11481;53.694;9.910;2023-04-25T07:56:17;7.20;99.90
22629;DHT22;11481;53.694;9.910;2023-04-25T07:58:44;7.20;99.90
22629;DHT22;11481;53.694;9.910;2023-04-25T08:01:12;7.20;99.90
22629;DHT22;11481;53.694;9.910;2023-04-25T08:03:39;7.20;99.90
22629;DHT22;11481;53.694;9.910;2023-04-25T08:06:08;7.00;99.90
22629;DHT22;11481;53.694;9.910;2023-04-25T08:08:35;6.20;99.90
22629;DHT22;11481;53.694;9.910;2023-04-25T08:11:04;5.70;99.90
22629;DHT22;11481;53.694;9.910;2023-04-25T08:13:30;5.60;99.90
22629;DHT22;11481;53.694;9.910;2023-04-25T08:15:57;5.50;99.90
22629;DHT22;11481;53.694;9.910;2023-04-25T08:18:23;5.50;99.90
22629;DHT22;11481;53.694;9.910;2023-04-25T08:20:50;5.70;99.90
22629;DHT22;11481;53.694;9.910;2023-04-25T08:23:17;5.80;99.90
22629;DHT22;11481;53.694;9.910;2023-04-25T08:25:43;5.90;99.90
22629;DHT22;11481;53.694;9.910;2023-04-25T08:28:12;6.00;99.90
22629;DHT22;11481;53.694;9.910;2023-04-25T08:30:39;6.20;99.90
22629;DHT22;11481;53.694;9.910;2023-04-25T08:33:06;6.40;99.90
22629;DHT22;11481;53.694;9.910;2023-04-25T08:35:33;6.60;99.90
22629;DHT22;11481;53.694;9.910;2023-04-25T08:38:02;6.70;99.90
22629;DHT22;11481;53.694;9.910;2023-04-25T08:40:28;7.00;99.90
22629;DHT22;11481;53.694;9.910;2023-04-25T08:43:00;7.40;99.90
22629;DHT22;11481;53.694;9.910;2023-04-25T08:45:31;7.80;99.90
22629;DHT22;11481;53.694;9.910;2023-04-25T08:47:58;7.70;99.90
22629;DHT22;11481;53.694;9.910;2023-04-25T08:50:27;7.60;99.90
22629;DHT22;11481;53.694;9.910;2023-04-25T08:52:54;7.50;99.90
22629;DHT22;11481;53.694;9.910;2023-04-25T08:55:23;8.10;99.90
22629;DHT22;11481;53.694;9.910;2023-04-25T08:57:51;7.70;99.90
22629;DHT22;11481;53.694;9.910;2023-04-25T09:00:18;7.50;99.90
22629;DHT22;11481;53.694;9.910;2023-04-25T09:02:47;7.50;99.90
22629;DHT22;11481;53.694;9.910;2023-04-25T09:05:14;7.50;99.90
22629;DHT22;11481;53.694;9.910;2023-04-25T09:07:41;7.50;99.90
22629;DHT22;11481;53.694;9.910;2023-04-25T09:10:11;7.50;99.90
22629;DHT22;11481;53.694;9.910;2023-04-25T09:12:38;7.60;99.90
22629;DHT22;11481;53.694;9.910;2023-04-25T09:15:09;7.80;99.90
22629;DHT22;11481;53.694;9.910;2023-04-25T09:17:36;7.70;99.90
22629;DHT22;11481;53.694;9.910;2023-04-25T09:20:11;7.70;99.90
22629;DHT22;11481;53.694;9.910;2023-04-25T09:22:39;7.90;99.90
22629;DHT22;11481;53.694;9.910;2023-04-25T09:25:13;8.10;99.90
22629;DHT22;11481;53.694;9.910;2023-04-25T09:27:53;8.20;99.90
22629;DHT22;11481;53.694;9.910;2023-04-25T09:30:29;8.10;99.90
22629;DHT22;11481;53.694;9.910;2023-04-25T09:32:59;8.00;99.90
22629;DHT22;11481;53.694;9.910;2023-04-25T09:35:38;7.90;99.90
22629;DHT22;11481;53.694;9.910;2023-04-25T09:38:14;7.60;99.90
22629;DHT22;11481;53.694;9.910;2023-04-25T09:43:24;7.10;99.90
22629;DHT22;11481;53.694;9.910;2023-04-25T09:45:54;6.90;99.90
22629;DHT22;11481;53.694;9.910;2023-04-25T09:48:26;7.10;99.90
22629;DHT22;11481;53.694;9.910;2023-04-25T09:53:39;7.60;99.90
22629;DHT22;11481;53.694;9.910;2023-04-25T09:56:07;7.80;99.90
22629;DHT22;11481;53.694;9.910;2023-04-25T09:58:37;8.10;99.90
22629;DHT22;11481;53.694;9.910;2023-04-25T10:01:05;8.30;99.90
22629;DHT22;11481;53.694;9.910;2023-04-25T10:03:36;8.30;99.90
22629;DHT22;11481;53.694;9.910;2023-04-25T10:06:07;8.30;99.90
22629;DHT22;11481;53.694;9.910;2023-04-25T10:08:36;8.30;99.90
22629;DHT22;11481;53.694;9.910;2023-04-25T10:11:07;8.30;99.90
22629;DHT22;11481;53.694;9.910;2023-04-25T10:13:36;8.00;99.90
22629;DHT22;11481;53.694;9.910;2023-04-25T10:16:04;8.00;99.90
22629;DHT22;11481;53.694;9.910;2023-04-25T10:18:32;7.90;99.90
22629;DHT22;11481;53.694;9.910;2023-04-25T10:21:01;8.00;99.90
22629;DHT22;11481;53.694;9.910;2023-04-25T10:23:32;7.90;99.90
22629;DHT22;11481;53.694;9.910;2023-04-25T10:26:01;8.10;99.90
22629;DHT22;11481;53.694;9.910;2023-04-25T10:28:29;8.40;99.90
22629;DHT22;11481;53.694;9.910;2023-04-25T10:33:40;8.90;99.90
22629;DHT22;11481;53.694;9.910;2023-04-25T10:36:21;8.90;99.90
22629;DHT22;11481;53.694;9.910;2023-04-25T10:38:50;9.00;99.90
22629;DHT22;11481;53.694;9.910;2023-04-25T10:41:21;9.10;99.90
22629;DHT22;11481;53.694;9.910;2023-04-25T10:43:50;8.70;99.90
22629;DHT22;11481;53.694;9.910;2023-04-25T10:46:26;8.60;99.90
22629;DHT22;11481;53.694;9.910;2023-04-25T10:48:54;8.20;99.90
22629;DHT22;11481;53.694;9.910;2023-04-25T10:51:27;8.30;99.90
22629;DHT22;11481;53.694;9.910;2023-04-25T10:54:04;8.40;99.90
22629;DHT22;11481;53.694;9.910;2023-04-25T10:56:39;8.30;99.90
22629;DHT22;11481;53.694;9.910;2023-04-25T10:59:17;8.30;99.90
22629;DHT22;11481;53.694;9.910;2023-04-25T11:01:49;8.00;99.90
22629;DHT22;11481;53.694;9.910;2023-04-25T11:04:30;7.30;99.90
22629;DHT22;11481;53.694;9.910;2023-04-25T11:07:34;7.30;99.90
22629;DHT22;11481;53.694;9.910;2023-04-25T11:10:04;7.50;99.90
22629;DHT22;11481;53.694;9.910;2023-04-25T11:12:31;7.50;99.90
22629;DHT22;11481;53.694;9.910;2023-04-25T11:14:59;7.60;99.90
22629;DHT22;11481;53.694;9.910;2023-04-25T11:17:28;7.80;99.90
22629;DHT22;11481;53.694;9.910;2023-04-25T11:19:56;7.80;99.90
22629;DHT22;11481;53.694;9.910;2023-04-25T11:22:23;8.00;99.90
22629;DHT22;11481;53.694;9.910;2023-04-25T11:24:50;8.20;99.90
22629;DHT22;11481;53.694;9.910;2023-04-25T11:27:17;8.30;99.90
22629;DHT22;11481;53.694;9.910;2023-04-25T11:29:44;8.40;99.90
22629;DHT22;11481;53.694;9.910;2023-04-25T11:32:11;8.70;99.90
22629;DHT22;11481;53.694;9.910;2023-04-25T11:34:38;9.00;99.90
22629;DHT22;11481;53.694;9.910;2023-04-25T11:37:04;9.10;99.90
22629;DHT22;11481;53.694;9.910;2023-04-25T11:39:34;9.00;99.90
22629;DHT22;11481;53.694;9.910;2023-04-25T11:42:04;9.10;99.90
22629;DHT22;11481;53.694;9.910;2023-04-25T11:44:38;9.00;99.90
22629;DHT22;11481;53.694;9.910;2023-04-25T11:47:06;8.90;99.90
22629;DHT22;11481;53.694;9.910;2023-04-25T11:49:33;8.90;99.90
22629;DHT22;11481;53.694;9.910;2023-04-25T11:51:59;9.00;99.90
22629;DHT22;11481;53.694;9.910;2023-04-25T11:54:26;9.30;99.90
22629;DHT22;11481;53.694;9.910;2023-04-25T11:56:53;9.50;99.90
22629;DHT22;11481;53.694;9.910;2023-04-25T11:59:24;9.70;99.90
22629;DHT22;11481;53.694;9.910;2023-04-25T12:01:53;9.50;99.90
22629;DHT22;11481;53.694;9.910;2023-04-25T12:04:21;9.60;99.90
22629;DHT22;11481;53.694;9.910;2023-04-25T12:06:52;9.50;99.90
22629;DHT22;11481;53.694;9.910;2023-04-25T12:09:27;9.70;99.90
22629;DHT22;11481;53.694;9.910;2023-04-25T12:11:58;9.80;99.90
22629;DHT22;11481;53.694;9.910;2023-04-25T12:14:30;9.90;99.90
22629;DHT22;11481;53.694;9.910;2023-04-25T12:17:00;10.10;99.90
22629;DHT22;11481;53.694;9.910;2023-04-25T12:19:35;9.90;99.90
22629;DHT22;11481;53.694;9.910;2023-04-25T12:22:03;9.40;99.90
22629;DHT22;11481;53.694;9.910;2023-04-25T12:24:34;9.70;99.90
22629;DHT22;11481;53.694;9.910;2023-04-25T12:27:05;9.80;99.90
22629;DHT22;11481;53.694;9.910;2023-04-25T12:29:35;9.80;99.90
22629;DHT22;11481;53.694;9.910;2023-04-25T12:32:15;9.50;99.90
22629;DHT22;11481;53.694;9.910;2023-04-25T12:34:42;9.50;99.90
22629;DHT22;11481;53.694;9.910;2023-04-25T12:37:09;9.40;99.90
22629;DHT22;11481;53.694;9.910;2023-04-25T12:39:36;9.20;99.90
22629;DHT22;11481;53.694;9.910;2023-04-25T12:42:04;8.90;99.90
22629;DHT22;11481;53.694;9.910;2023-04-25T12:44:35;8.80;99.90
22629;DHT22;11481;53.694;9.910;2023-04-25T12:47:04;8.40;99.90
22629;DHT22;11481;53.694;9.910;2023-04-25T12:49:31;7.70;99.90
22629;DHT22;11481;53.694;9.910;2023-04-25T12:51:58;7.40;99.90
22629;DHT22;11481;53.694;9.910;2023-04-25T12:54:26;7.40;99.90
22629;DHT22;11481;53.694;9.910;2023-04-25T12:56:53;7.70;99.90
22629;DHT22;11481;53.694;9.910;2023-04-25T12:59:21;8.10;99.90
22629;DHT22;11481;53.694;9.910;2023-04-25T13:01:49;8.10;99.90
22629;DHT22;11481;53.694;9.910;2023-04-25T13:04:18;8.40;99.90
22629;DHT22;11481;53.694;9.910;2023-04-25T13:06:46;8.60;99.90
22629;DHT22;11481;53.694;9.910;2023-04-25T13:09:13;8.70;99.90
22629;DHT22;11481;53.694;9.910;2023-04-25T13:11:41;8.60;99.90
22629;DHT22;11481;53.694;9.910;2023-04-25T13:14:10;8.50;99.90
22629;DHT22;11481;53.694;9.910;2023-04-25T13:16:36;8.00;99.90
22629;DHT22;11481;53.694;9.910;2023-04-25T13:19:03;7.70;99.90
22629;DHT22;11481;53.694;9.910;2023-04-25T13:21:30;7.60;99.90
22629;DHT22;11481;53.694;9.910;2023-04-25T13:23:59;7.90;99.90
22629;DHT22;11481;53.694;9.910;2023-04-25T13:26:25;8.20;99.90
22629;DHT22;11481;53.694;9.910;2023-04-25T13:28:52;8.30;99.90
22629;DHT22;11481;53.694;9.910;2023-04-25T13:31:19;8.50;99.90
22629;DHT22;11481;53.694;9.910;2023-04-25T13:33:45;8.70;99.90
22629;DHT22;11481;53.694;9.910;2023-04-25T13:36:12;8.70;99.90
22629;DHT22;11481;53.694;9.910;2023-04-25T13:38:40;8.30;99.90
22629;DHT22;11481;53.694;9.910;2023-04-25T13:41:13;7.60;99.90
22629;DHT22;11481;53.694;9.910;2023-04-25T13:43:47;7.30;99.90
22629;DHT22;11481;53.694;9.910;2023-04-25T13:46:14;7.30;99.90
22629;DHT22;11481;53.694;9.910;2023-04-25T13:49:02;7.60;99.90
22629;DHT22;11481;53.694;9.910;2023-04-25T13:51:40;7.60;99.90
22629;DHT22;11481;53.694;9.910;2023-04-25T13:54:07;7.70;99.90
22629;DHT22;11481;53.694;9.910;2023-04-25T13:56:34;7.70;99.90
22629;DHT22;11481;53.694;9.910;2023-04-25T13:59:00;7.90;99.90
22629;DHT22;11481;53.694;9.910;2023-04-25T14:01:29;8.20;99.90
22629;DHT22;11481;53.694;9.910;2023-04-25T14:03:57;8.40;99.90
22629;DHT22;11481;53.694;9.910;2023-04-25T14:06:24;8.30;99.90
22629;DHT22;11481;53.694;9.910;2023-04-25T14:08:51;8.50;99.90
22629;DHT22;11481;53.694;9.910;2023-04-25T14:11:18;8.60;99.90
22629;DHT22;11481;53.694;9.910;2023-04-25T14:13:49;8.80;99.90
22629;DHT22;11481;53.694;9.910;2023-04-25T14:16:16;8.80;99.90
22629;DHT22;11481;53.694;9.910;2023-04-25T14:18:43;8.60;99.90
22629;DHT22;11481;53.694;9.910;2023-04-25T14:21:10;9.40;99.90
22629;DHT22;11481;53.694;9.910;2023-04-25T14:23:39;8.70;99.90
22629;DHT22;11481;53.694;9.910;2023-04-25T14:26:06;8.90;99.90
22629;DHT22;11481;53.694;9.910;2023-04-25T14:28:33;8.90;99.90
22629;DHT22;11481;53.694;9.910;2023-04-25T14:30:59;8.90;99.90
22629;DHT22;11481;53.694;9.910;2023-04-25T14:33:27;8.90;99.90
22629;DHT22;11481;53.694;9.910;2023-04-25T14:35:53;9.20;99.90
22629;DHT22;11481;53.694;9.910;2023-04-25T14:38:20;9.00;99.90
22629;DHT22;11481;53.694;9.910;2023-04-25T14:40:49;9.20;99.90
22629;DHT22;11481;53.694;9.910;2023-04-25T14:43:16;9.40;99.90
22629;DHT22;11481;53.694;9.910;2023-04-25T14:45:43;9.40;99.90
22629;DHT22;11481;53.694;9.910;2023-04-25T14:48:10;9.40;99.90
22629;DHT22;11481;53.694;9.910;2023-04-25T14:50:37;9.50;99.90
22629;DHT22;11481;53.694;9.910;2023-04-25T14:53:04;9.70;99.90
22629;DHT22;11481;53.694;9.910;2023-04-25T14:55:31;9.50;99.90
22629;DHT22;11481;53.694;9.910;2023-04-25T14:57:58;8.70;99.90
22629;DHT22;11481;53.694;9.910;2023-04-25T15:00:24;7.90;99.90
22629;DHT22;11481;53.694;9.910;2023-04-25T15:02:55;7.80;99.90
22629;DHT22;11481;53.694;9.910;2023-04-25T15:05:22;7.40;99.90
22629;DHT22;11481;53.694;9.910;2023-04-25T15:07:51;7.20;99.90
22629;DHT22;11481;53.694;9.910;2023-04-25T15:10:18;7.30;99.90
22629;DHT22;11481;53.694;9.910;2023-04-25T15:12:45;7.40;99.90
22629;DHT22;11481;53.694;9.910;2023-04-25T15:15:14;7.70;99.90
22629;DHT22;11481;53.694;9.910;2023-04-25T15:17:51;7.80;99.90
22629;DHT22;11481;53.694;9.910;2023-04-25T15:20:23;8.10;99.90
22629;DHT22;11481;53.694;9.910;2023-04-25T15:22:50;8.40;99.90
22629;DHT22;11481;53.694;9.910;2023-04-25T15:25:17;8.30;99.90
22629;DHT22;11481;53.694;9.910;2023-04-25T15:27:47;8.50;99.90
22629;DHT22;11481;53.694;9.910;2023-04-25T15:30:16;8.30;99.90
22629;DHT22;11481;53.694;9.910;2023-04-25T15:32:44;8.20;99.90
22629;DHT22;11481;53.694;9.910;2023-04-25T15:35:12;8.20;99.90
22629;DHT22;11481;53.694;9.910;2023-04-25T15:37:39;8.30;99.90
22629;DHT22;11481;53.694;9.910;2023-04-25T15:40:15;8.40;99.90
22629;DHT22;11481;53.694;9.910;2023-04-25T15:42:43;8.60;99.90
22629;DHT22;11481;53.694;9.910;2023-04-25T15:45:10;9.00;99.90
22629;DHT22;11481;53.694;9.910;2023-04-25T15:47:37;9.20;99.90
22629;DHT22;11481;53.694;9.910;2023-04-25T15:50:06;9.30;99.90
22629;DHT22;11481;53.694;9.910;2023-04-25T15:52:35;9.30;99.90
22629;DHT22;11481;53.694;9.910;2023-04-25T15:55:04;9.20;99.90
22629;DHT22;11481;53.694;9.910;2023-04-25T15:57:33;9.40;99.90
22629;DHT22;11481;53.694;9.910;2023-04-25T16:00:24;9.40;99.90